Time;durP1;ratioP1;P1;durP2;ratioP2;P2;SDS_P1;SDS_P2;PMS_P1;PMS_P2;Temp;Humidity;BMP_temperature;BMP_pressure;BME280_temperature;BME280_humidity;BME280_pressure;Samples;Min_cycle;Max_cycle;Signal;HPM_P1;HPM_P2
2023/09/18 00:00:56;;;;;;;2.37;2.17;;;25.10;90.50;;;;;;6157342;23;20495;-88
2023/09/18 00:03:24;;;;;;;2.10;2.00;;;25.10;90.50;;;;;;6157058;23;20736;-88
2023/09/18 00:05:51;;;;;;;2.23;2.10;;;25.10;90.50;;;;;;6157199;23;20451;-88
2023/09/18 00:08:20;;;;;;;2.17;1.97;;;25.10;90.50;;;;;;6157289;23;20490;-88
2023/09/18 00:10:49;;;;;;;2.20;2.10;;;25.10;90.50;;;;;;6157210;23;20486;-88
2023/09/18 00:13:16;;;;;;;2.07;1.93;;;25.10;90.50;;;;;;6156861;23;20495;-88
2023/09/18 00:15:44;;;;;;;2.03;1.93;;;25.10;90.50;;;;;;6157112;23;20450;-88
2023/09/18 00:18:11;;;;;;;2.37;2.27;;;25.10;90.50;;;;;;6157314;23;20474;-88
2023/09/18 00:20:38;;;;;;;2.10;2.00;;;25.00;90.40;;;;;;6157096;23;20432;-88
2023/09/18 00:23:05;;;;;;;2.10;2.00;;;25.00;90.50;;;;;;6157291;23;20760;-88
2023/09/18 00:25:33;;;;;;;2.60;2.40;;;25.00;90.40;;;;;;6157069;23;20410;-88
2023/09/18 00:28:00;;;;;;;2.57;2.37;;;25.10;90.50;;;;;;6156702;23;20539;-88
2023/09/18 00:30:27;;;;;;;2.90;2.20;;;25.10;90.50;;;;;;6157045;23;20427;-88
2023/09/18 00:32:54;;;;;;;1.97;1.87;;;25.10;90.50;;;;;;6156571;23;20500;-88
2023/09/18 00:35:22;;;;;;;2.93;2.73;;;25.00;90.40;;;;;;6156496;23;20458;-88
2023/09/18 00:37:49;;;;;;;2.20;2.10;;;25.10;90.50;;;;;;6156907;23;20404;-88
2023/09/18 00:40:16;;;;;;;2.03;1.93;;;25.00;90.40;;;;;;6156975;23;20408;-88
2023/09/18 00:42:44;;;;;;;1.93;1.83;;;25.00;90.40;;;;;;6156560;23;20931;-88
2023/09/18 00:45:11;;;;;;;1.90;1.80;;;25.00;90.40;;;;;;6156840;23;20486;-88
2023/09/18 00:47:38;;;;;;;2.50;2.30;;;25.00;90.40;;;;;;6156496;23;20443;-88
2023/09/18 00:50:07;;;;;;;2.60;2.40;;;25.00;90.40;;;;;;6156792;23;20400;-88
2023/09/18 00:52:34;;;;;;;2.50;2.30;;;25.00;90.40;;;;;;6156850;23;20427;-88
2023/09/18 00:55:01;;;;;;;2.43;2.33;;;25.00;90.40;;;;;;6156824;23;20487;-88
2023/09/18 00:57:29;;;;;;;2.20;2.07;;;25.00;90.40;;;;;;6156354;23;20534;-88
2023/09/18 00:59:57;;;;;;;2.30;2.20;;;25.00;90.40;;;;;;6156723;23;20491;-88
2023/09/18 01:02:24;;;;;;;1.90;1.80;;;25.00;90.40;;;;;;6156729;23;20432;-88
2023/09/18 01:04:51;;;;;;;2.83;2.17;;;25.00;90.50;;;;;;6156678;23;20455;-88
2023/09/18 01:07:18;;;;;;;1.90;1.80;;;25.00;90.40;;;;;;6156745;23;20483;-88
2023/09/18 01:09:45;;;;;;;2.83;2.63;;;25.00;90.50;;;;;;6156154;23;20915;-88
2023/09/18 01:12:19;;;;;;;2.43;2.23;;;25.00;90.50;;;;;;6156671;23;20483;-88
2023/09/18 01:14:57;;;;;;;2.30;2.10;;;25.00;90.40;;;;;;6156191;23;20399;-88
2023/09/18 01:17:27;;;;;;;2.90;2.70;;;25.00;90.50;;;;;;6156306;23;20466;-88
2023/09/18 01:19:53;;;;;;;2.70;2.50;;;25.00;90.50;;;;;;6156632;23;20483;-88
2023/09/18 01:22:21;;;;;;;2.60;2.40;;;25.00;90.50;;;;;;6156288;23;20486;-88
2023/09/18 01:24:50;;;;;;;2.37;2.17;;;25.00;90.50;;;;;;6156180;23;20929;-88
2023/09/18 01:27:18;;;;;;;2.50;2.30;;;25.00;90.50;;;;;;6156312;23;20737;-88
2023/09/18 01:29:45;;;;;;;2.63;2.43;;;25.00;90.50;;;;;;6156256;23;20479;-88
2023/09/18 01:32:12;;;;;;;1.97;1.87;;;25.00;90.50;;;;;;6156504;23;20400;-88
2023/09/18 01:34:43;;;;;;;2.03;1.93;;;25.00;90.40;;;;;;6156045;23;20502;-89
2023/09/18 01:37:12;;;;;;;2.10;2.00;;;25.00;90.50;;;;;;6156106;23;20958;-88
2023/09/18 01:39:40;;;;;;;2.20;2.10;;;25.00;90.50;;;;;;6156383;23;20435;-88
2023/09/18 01:42:10;;;;;;;2.23;2.07;;;25.00;90.50;;;;;;6156371;23;20430;-88
2023/09/18 01:44:38;;;;;;;2.37;2.20;;;25.00;90.50;;;;;;6156748;23;20407;-88
2023/09/18 01:47:07;;;;;;;2.53;2.33;;;25.00;90.50;;;;;;6156381;23;20890;-88
2023/09/18 01:49:36;;;;;;;2.13;2.03;;;25.00;90.50;;;;;;6156209;23;20483;-88
2023/09/18 01:52:04;;;;;;;2.47;2.30;;;25.00;90.50;;;;;;6155901;23;20499;-88
2023/09/18 01:54:31;;;;;;;2.10;2.00;;;25.00;90.50;;;;;;6156246;23;20487;-88
2023/09/18 01:56:59;;;;;;;2.60;2.23;;;25.00;90.50;;;;;;6156267;23;20485;-88
2023/09/18 01:59:28;;;;;;;2.67;2.47;;;25.00;90.50;;;;;;6155747;23;20522;-88
2023/09/18 02:01:55;;;;;;;4.10;2.43;;;25.00;90.50;;;;;;6156180;23;20490;-88
2023/09/18 02:04:22;;;;;;;2.47;2.30;;;25.00;90.50;;;;;;6155794;23;20404;-88
2023/09/18 02:06:51;;;;;;;2.30;2.10;;;25.00;90.50;;;;;;6155826;23;20482;-88
2023/09/18 02:09:18;;;;;;;2.63;2.43;;;25.00;90.50;;;;;;6155791;23;20396;-88
2023/09/18 02:11:47;;;;;;;2.20;2.10;;;25.00;90.50;;;;;;6156536;23;20487;-88
2023/09/18 02:14:15;;;;;;;2.30;2.20;;;25.00;90.50;;;;;;6156298;23;20487;-88
2023/09/18 02:16:45;;;;;;;2.00;1.90;;;25.00;90.80;;;;;;6156007;23;20809;-88
2023/09/18 02:19:12;;;;;;;2.20;2.10;;;25.00;90.50;;;;;;6155887;23;20392;-88
2023/09/18 02:21:40;;;;;;;2.90;2.60;;;25.00;90.50;;;;;;6155769;23;20408;-88
2023/09/18 02:24:07;;;;;;;2.20;2.03;;;25.00;90.50;;;;;;6155923;23;20486;-88
2023/09/18 02:26:35;;;;;;;2.47;2.37;;;25.00;90.90;;;;;;6155659;23;20403;-88
2023/09/18 02:29:04;;;;;;;1.90;1.80;;;25.00;90.50;;;;;;6157706;23;20431;-88
2023/09/18 02:31:31;;;;;;;2.20;2.00;;;25.00;90.50;;;;;;6157725;23;20402;-88
2023/09/18 02:34:00;;;;;;;2.30;2.20;;;25.00;90.50;;;;;;6158148;23;20396;-88
2023/09/18 02:36:26;;;;;;;2.27;2.17;;;25.00;90.50;;;;;;6157662;23;20475;-88
2023/09/18 02:38:53;;;;;;;2.10;1.90;;;25.00;90.50;;;;;;6158119;23;20728;-88
2023/09/18 02:41:20;;;;;;;2.60;2.40;;;25.00;90.50;;;;;;6158028;23;20491;-88
2023/09/18 02:43:47;;;;;;;2.00;1.90;;;25.00;90.50;;;;;;6158043;23;20438;-88
2023/09/18 02:46:14;;;;;;;2.40;2.20;;;25.00;90.50;;;;;;6157853;23;20426;-88
2023/09/18 02:48:40;;;;;;;2.53;2.33;;;25.00;90.50;;;;;;6157651;23;20479;-88
2023/09/18 02:51:09;;;;;;;2.53;2.33;;;25.00;90.50;;;;;;6157941;23;20442;-88
2023/09/18 02:53:36;;;;;;;2.47;2.27;;;25.00;90.50;;;;;;6158048;23;20427;-88
2023/09/18 02:56:03;;;;;;;2.80;2.60;;;25.00;90.50;;;;;;6157539;23;20966;-88
2023/09/18 02:58:30;;;;;;;2.20;2.10;;;25.00;90.50;;;;;;6157813;23;20526;-88
2023/09/18 03:00:59;;;;;;;2.30;2.20;;;25.00;90.50;;;;;;6157874;23;20403;-88
2023/09/18 03:03:26;;;;;;;2.10;2.00;;;25.00;90.50;;;;;;6157917;23;20408;-88
2023/09/18 03:05:53;;;;;;;2.43;2.30;;;25.00;90.50;;;;;;6157688;23;20454;-88
2023/09/18 03:08:21;;;;;;;2.70;2.50;;;25.00;90.50;;;;;;6157739;23;20743;-88
2023/09/18 03:10:48;;;;;;;2.50;2.30;;;25.00;90.50;;;;;;6157853;23;20836;-88
2023/09/18 03:13:16;;;;;;;2.63;2.43;;;25.00;90.50;;;;;;6157317;23;20815;-88
2023/09/18 03:15:46;;;;;;;1.90;1.80;;;25.00;90.50;;;;;;6157753;23;20402;-88
2023/09/18 03:18:13;;;;;;;2.37;2.20;;;25.00;90.60;;;;;;6157303;23;20938;-88
2023/09/18 03:20:40;;;;;;;2.33;2.17;;;25.00;90.50;;;;;;6157228;23;20435;-88
2023/09/18 03:23:07;;;;;;;2.50;2.30;;;25.00;90.60;;;;;;6157720;23;20717;-88
2023/09/18 03:25:35;;;;;;;2.27;2.07;;;25.00;90.60;;;;;;6157123;23;20483;-88
2023/09/18 03:28:02;;;;;;;2.20;2.10;;;25.00;90.60;;;;;;6157272;23;20462;-88
2023/09/18 03:30:29;;;;;;;2.60;2.40;;;25.00;90.60;;;;;;6157301;23;20486;-88
2023/09/18 03:32:56;;;;;;;2.27;2.07;;;25.00;90.50;;;;;;6157227;23;20407;-88
2023/09/18 03:35:23;;;;;;;2.20;2.10;;;25.00;90.50;;;;;;6157482;23;20462;-88
2023/09/18 03:37:51;;;;;;;1.93;1.83;;;25.00;90.50;;;;;;6157307;23;20475;-88
2023/09/18 03:40:19;;;;;;;2.40;2.20;;;25.00;90.50;;;;;;6156787;23;20442;-88
2023/09/18 03:42:48;;;;;;;2.20;2.07;;;25.00;90.50;;;;;;6157093;23;20487;-88
2023/09/18 03:45:17;;;;;;;2.23;2.03;;;25.00;90.50;;;;;;6157566;23;20404;-88
2023/09/18 03:47:44;;;;;;;2.00;1.90;;;25.00;90.50;;;;;;6156998;23;20891;-88
2023/09/18 03:50:11;;;;;;;2.60;2.40;;;25.00;90.50;;;;;;6157104;23;20431;-88
2023/09/18 03:52:39;;;;;;;2.47;2.27;;;25.00;90.50;;;;;;6157456;23;20471;-88
2023/09/18 03:55:07;;;;;;;2.63;2.43;;;25.00;90.50;;;;;;6157358;23;20442;-88
2023/09/18 03:57:35;;;;;;;2.20;2.10;;;25.00;90.50;;;;;;6156908;23;20479;-88
2023/09/18 04:00:04;;;;;;;2.37;2.20;;;25.00;90.50;;;;;;6156855;23;20404;-88
2023/09/18 04:02:31;;;;;;;2.93;2.00;;;25.00;90.50;;;;;;6157345;23;20919;-88
2023/09/18 04:04:58;;;;;;;2.60;2.40;;;25.00;90.40;;;;;;6156821;23;20458;-88
2023/09/18 04:07:25;;;;;;;2.40;2.20;;;25.00;90.40;;;;;;6157182;23;20484;-88
2023/09/18 04:09:51;;;;;;;2.80;2.37;;;25.00;90.40;;;;;;6157224;23;20794;-88
2023/09/18 04:12:18;;;;;;;1.90;1.77;;;25.00;90.40;;;;;;6156845;23;20407;-88
2023/09/18 04:14:46;;;;;;;2.20;2.10;;;25.00;90.40;;;;;;6157228;23;20482;-88
2023/09/18 04:17:15;;;;;;;1.97;1.87;;;25.00;90.40;;;;;;6157152;23;20754;-88
2023/09/18 04:19:43;;;;;;;2.20;2.10;;;25.00;90.40;;;;;;6157044;23;20404;-88
2023/09/18 04:22:10;;;;;;;2.30;2.10;;;25.00;90.40;;;;;;6157133;23;20735;-88
2023/09/18 04:24:36;;;;;;;2.83;2.30;;;25.00;90.40;;;;;;6157038;23;20432;-88
2023/09/18 04:27:04;;;;;;;2.10;2.00;;;25.00;90.40;;;;;;6156901;23;20695;-88
2023/09/18 04:29:30;;;;;;;2.40;2.20;;;25.00;90.40;;;;;;6156561;23;20490;-88
2023/09/18 04:31:57;;;;;;;2.40;2.23;;;25.00;90.40;;;;;;6157149;23;20479;-88
2023/09/18 04:34:26;;;;;;;2.00;1.90;;;25.00;90.40;;;;;;6157015;23;20526;-88
2023/09/18 04:36:52;;;;;;;2.20;2.00;;;25.00;90.40;;;;;;6156815;23;20517;-88
2023/09/18 04:39:20;;;;;;;2.30;2.20;;;25.00;90.40;;;;;;6156538;23;20930;-88
2023/09/18 04:41:47;;;;;;;2.30;2.10;;;25.00;90.40;;;;;;6156938;23;20403;-88
2023/09/18 04:44:14;;;;;;;2.10;2.00;;;25.00;90.40;;;;;;6156675;23;20910;-88
2023/09/18 04:46:42;;;;;;;1.80;1.70;;;25.00;90.40;;;;;;6156504;23;20400;-88
2023/09/18 04:49:10;;;;;;;2.63;2.43;;;25.00;90.40;;;;;;6156460;23;20402;-88
2023/09/18 04:51:41;;;;;;;2.47;2.27;;;25.00;90.40;;;;;;6156350;23;20458;-88
2023/09/18 04:54:08;;;;;;;1.90;1.80;;;25.00;90.70;;;;;;6156469;23;20398;-88
2023/09/18 04:56:35;;;;;;;2.10;1.90;;;25.00;90.40;;;;;;6156428;23;20887;-88
2023/09/18 04:59:02;;;;;;;1.97;1.87;;;25.00;90.40;;;;;;6156710;23;20526;-88
2023/09/18 05:01:29;;;;;;;2.37;2.17;;;25.00;90.40;;;;;;6156765;23;20407;-88
2023/09/18 05:03:56;;;;;;;1.80;1.70;;;24.90;90.30;;;;;;6156776;23;20403;-88
2023/09/18 05:06:23;;;;;;;1.73;1.63;;;25.00;90.30;;;;;;6156109;23;20510;-88
2023/09/18 05:08:55;;;;;;;2.00;1.90;;;25.00;90.40;;;;;;6156365;23;20904;-88
2023/09/18 05:11:22;;;;;;;2.23;2.03;;;25.00;90.40;;;;;;6156657;23;20396;-88
2023/09/18 05:13:49;;;;;;;1.90;1.80;;;25.00;90.40;;;;;;6156723;23;20475;-88
2023/09/18 05:16:17;;;;;;;1.90;1.70;;;25.00;90.30;;;;;;6156262;23;20408;-88
2023/09/18 05:18:44;;;;;;;2.23;2.03;;;25.00;90.30;;;;;;6156242;23;20459;-88
2023/09/18 05:21:11;;;;;;;2.20;2.10;;;24.90;90.30;;;;;;6156643;23;20508;-88
2023/09/18 05:23:37;;;;;;;2.00;1.90;;;25.00;90.30;;;;;;6156482;23;20479;-88
2023/09/18 05:26:06;;;;;;;3.10;2.10;;;24.90;90.30;;;;;;6156452;23;20490;-88
2023/09/18 05:28:32;;;;;;;2.40;2.03;;;24.90;90.30;;;;;;6156007;23;20519;-88
2023/09/18 05:30:59;;;;;;;2.93;1.90;;;25.00;90.30;;;;;;6156500;23;20430;-88
2023/09/18 05:33:26;;;;;;;2.27;2.17;;;25.00;90.40;;;;;;6156521;23;20399;-88
2023/09/18 05:35:53;;;;;;;2.10;1.83;;;24.90;90.30;;;;;;6156308;23;20428;-88
2023/09/18 05:38:20;;;;;;;1.90;1.80;;;25.00;90.40;;;;;;6156002;23;20968;-88
2023/09/18 05:40:47;;;;;;;2.07;1.93;;;25.00;90.30;;;;;;6155903;23;20486;-88
2023/09/18 05:43:15;;;;;;;1.83;1.73;;;25.00;90.30;;;;;;6156091;23;20410;-88
2023/09/18 05:45:42;;;;;;;1.77;1.67;;;25.00;90.30;;;;;;6156303;23;20770;-88
2023/09/18 05:48:09;;;;;;;2.17;2.07;;;24.90;90.30;;;;;;6155974;23;20950;-88
2023/09/18 05:50:37;;;;;;;2.17;2.07;;;24.90;90.30;;;;;;6156313;23;20957;-88
2023/09/18 05:53:04;;;;;;;2.03;1.93;;;25.00;90.30;;;;;;6156381;23;20465;-88
2023/09/18 05:55:32;;;;;;;1.93;1.83;;;25.00;90.30;;;;;;6156289;23;20880;-88
2023/09/18 05:57:58;;;;;;;2.90;2.00;;;25.00;90.30;;;;;;6156162;23;20766;-88
2023/09/18 06:00:27;;;;;;;2.00;1.90;;;25.00;90.30;;;;;;6155793;23;20491;-88
2023/09/18 06:02:54;;;;;;;2.00;1.80;;;24.90;90.30;;;;;;6155690;23;20404;-88
2023/09/18 06:05:21;;;;;;;2.37;2.17;;;24.90;90.30;;;;;;6156208;23;20499;-88
2023/09/18 06:07:49;;;;;;;1.93;1.83;;;24.90;90.30;;;;;;6155962;23;20875;-88
2023/09/18 06:10:17;;;;;;;2.10;2.00;;;24.90;90.30;;;;;;6156212;23;20411;-89
2023/09/18 06:12:44;;;;;;;2.03;1.90;;;25.00;90.30;;;;;;6155857;23;20403;-88
2023/09/18 06:15:12;;;;;;;2.60;1.90;;;25.00;90.30;;;;;;6156229;23;20422;-88
2023/09/18 06:17:41;;;;;;;1.80;1.70;;;25.00;90.30;;;;;;6155640;23;20448;-88
2023/09/18 06:20:10;;;;;;;2.47;2.27;;;25.00;90.30;;;;;;6156151;23;20490;-88
2023/09/18 06:22:38;;;;;;;2.13;2.00;;;25.00;90.30;;;;;;6156017;23;20697;-88
2023/09/18 06:25:05;;;;;;;2.00;1.90;;;25.00;90.30;;;;;;6155826;23;20406;-88
2023/09/18 06:27:34;;;;;;;2.00;1.90;;;25.00;90.30;;;;;;6155674;23;20795;-88
2023/09/18 06:30:01;;;;;;;2.53;1.80;;;25.00;90.30;;;;;;6156124;23;20412;-88
2023/09/18 06:32:28;;;;;;;1.70;1.60;;;25.00;90.30;;;;;;6156150;23;20436;-88
2023/09/18 06:34:57;;;;;;;1.90;1.80;;;25.00;90.30;;;;;;6155620;23;20507;-88
2023/09/18 06:37:24;;;;;;;1.80;1.70;;;25.00;90.30;;;;;;6155987;23;20404;-88
2023/09/18 06:39:51;;;;;;;1.80;1.70;;;25.00;90.30;;;;;;6155929;23;20491;-88
2023/09/18 06:42:18;;;;;;;2.10;2.00;;;25.00;90.30;;;;;;6156092;23;20400;-88
2023/09/18 06:44:45;;;;;;;1.87;1.77;;;25.00;90.30;;;;;;6155992;23;20895;-88
2023/09/18 06:47:12;;;;;;;2.00;1.90;;;25.00;90.30;;;;;;6155425;23;20527;-88
2023/09/18 06:49:41;;;;;;;2.07;1.90;;;25.00;90.30;;;;;;6155974;23;20491;-89
2023/09/18 06:52:09;;;;;;;2.67;2.00;;;25.00;90.70;;;;;;6155556;23;20404;-88
2023/09/18 06:54:37;;;;;;;2.00;1.90;;;25.00;90.30;;;;;;6155962;23;20483;-88
2023/09/18 06:57:04;;;;;;;1.80;1.70;;;25.00;90.30;;;;;;6155986;23;20400;-88
2023/09/18 06:59:33;;;;;;;1.63;1.53;;;24.90;90.30;;;;;;6155515;23;20530;-88
2023/09/18 07:02:00;;;;;;;2.07;1.80;;;24.90;90.30;;;;;;6155857;23;20410;-88
2023/09/18 07:04:27;;;;;;;2.17;1.97;;;25.00;90.30;;;;;;6155851;23;20769;-88
2023/09/18 07:06:54;;;;;;;1.40;1.30;;;24.90;90.30;;;;;;6155501;23;20431;-88
2023/09/18 07:09:24;;;;;;;2.07;1.87;;;24.90;90.30;;;;;;6155807;23;20426;-88
2023/09/18 07:11:51;;;;;;;1.63;1.53;;;25.00;90.30;;;;;;6155957;23;20400;-89
2023/09/18 07:14:18;;;;;;;2.20;2.00;;;24.90;90.30;;;;;;6157367;23;20422;-88
2023/09/18 07:16:45;;;;;;;1.70;1.60;;;24.90;90.30;;;;;;6157755;23;20431;-88
2023/09/18 07:19:16;;;;;;;2.63;2.20;;;25.00;90.30;;;;;;6157207;23;20455;-88
2023/09/18 07:21:43;;;;;;;2.17;1.70;;;24.90;90.60;;;;;;6157752;23;20475;-88
2023/09/18 07:24:16;;;;;;;1.80;1.70;;;25.00;90.30;;;;;;6157751;23;20764;-88
2023/09/18 07:26:45;;;;;;;2.00;1.90;;;25.00;90.30;;;;;;6157321;23;20400;-88
2023/09/18 07:29:11;;;;;;;2.47;1.80;;;25.00;90.30;;;;;;6157083;23;20828;-88
2023/09/18 07:31:40;;;;;;;1.80;1.70;;;25.00;90.30;;;;;;6157165;23;20907;-88
2023/09/18 07:34:07;;;;;;;2.00;1.80;;;25.00;90.30;;;;;;6157655;23;20404;-88
2023/09/18 07:36:33;;;;;;;2.00;1.90;;;25.00;90.30;;;;;;6157528;23;20448;-88
2023/09/18 07:39:00;;;;;;;1.70;1.60;;;25.00;90.30;;;;;;6157413;23;20538;-88
2023/09/18 07:41:27;;;;;;;1.87;1.77;;;25.00;90.30;;;;;;6157544;23;20407;-88
2023/09/18 07:43:57;;;;;;;1.70;1.60;;;25.00;90.30;;;;;;6157524;23;20443;-88
2023/09/18 07:46:24;;;;;;;1.53;1.43;;;25.00;90.30;;;;;;6156963;23;20955;-88
2023/09/18 07:48:50;;;;;;;1.77;1.67;;;25.00;90.30;;;;;;6157179;23;20443;-89
2023/09/18 07:51:17;;;;;;;1.87;1.67;;;25.00;90.30;;;;;;6157108;23;20478;-88
2023/09/18 07:53:44;;;;;;;1.80;1.57;;;25.00;90.20;;;;;;6157422;23;20431;-88
2023/09/18 07:56:11;;;;;;;2.80;1.97;;;25.00;90.20;;;;;;6157424;23;20442;-88
2023/09/18 07:58:39;;;;;;;2.23;2.03;;;25.00;90.20;;;;;;6157071;23;20475;-88
2023/09/18 08:01:08;;;;;;;1.90;1.80;;;25.00;90.20;;;;;;6157318;23;20474;-88
2023/09/18 08:03:35;;;;;;;1.60;1.50;;;25.00;90.20;;;;;;6157416;23;20408;-88
2023/09/18 08:06:04;;;;;;;2.13;1.93;;;25.00;90.20;;;;;;6157131;23;20434;-88
2023/09/18 08:08:33;;;;;;;1.73;1.63;;;25.00;90.20;;;;;;6156937;23;20455;-88
2023/09/18 08:11:08;;;;;;;1.77;1.67;;;25.00;90.20;;;;;;6157294;23;20483;-88
2023/09/18 08:13:35;;;;;;;1.60;1.50;;;25.00;90.20;;;;;;6156971;23;20388;-88
2023/09/18 08:16:02;;;;;;;2.00;1.80;;;25.00;90.20;;;;;;6157205;23;20494;-88
2023/09/18 08:18:30;;;;;;;1.60;1.50;;;25.00;90.20;;;;;;6156599;23;20759;-88
2023/09/18 08:20:58;;;;;;;1.73;1.63;;;25.00;90.20;;;;;;6156732;23;20400;-88
2023/09/18 08:23:25;;;;;;;1.70;1.60;;;25.00;90.20;;;;;;6156797;23;20950;-88
2023/09/18 08:25:55;;;;;;;1.70;1.60;;;25.00;90.20;;;;;;6156400;23;20438;-88
2023/09/18 08:28:22;;;;;;;1.93;1.70;;;25.00;90.60;;;;;;6156751;23;20773;-88
2023/09/18 08:30:49;;;;;;;1.83;1.60;;;25.00;90.20;;;;;;6156652;23;20435;-88
2023/09/18 08:33:16;;;;;;;2.10;2.00;;;25.00;90.20;;;;;;6157072;23;20491;-88
2023/09/18 08:35:44;;;;;;;1.90;1.80;;;25.00;90.20;;;;;;6156590;23;20511;-88
2023/09/18 08:38:11;;;;;;;2.17;1.80;;;25.00;90.20;;;;;;6156530;23;20522;-88
2023/09/18 08:40:38;;;;;;;1.70;1.50;;;25.00;90.20;;;;;;6156893;23;20481;-88
2023/09/18 08:43:05;;;;;;;4.70;1.60;;;25.00;90.20;;;;;;6156842;23;20837;-88
2023/09/18 08:45:38;;;;;;;1.77;1.67;;;25.00;90.20;;;;;;6156807;23;20450;-88
2023/09/18 08:48:06;;;;;;;2.17;1.43;;;25.00;90.20;;;;;;6156479;23;20933;-88
2023/09/18 08:50:34;;;;;;;1.60;1.43;;;25.00;90.20;;;;;;6156834;23;20406;-88
2023/09/18 08:53:02;;;;;;;1.80;1.50;;;25.00;90.20;;;;;;6156366;23;20955;-88
2023/09/18 08:55:30;;;;;;;1.63;1.53;;;25.00;90.20;;;;;;6156854;23;20904;-88
2023/09/18 08:58:00;;;;;;;1.87;1.67;;;25.00;90.20;;;;;;6156729;23;20406;-88
2023/09/18 09:00:27;;;;;;;1.57;1.47;;;25.00;90.20;;;;;;6156795;23;20730;-88
2023/09/18 09:02:54;;;;;;;1.40;1.30;;;25.00;90.10;;;;;;6156358;23;20438;-88
2023/09/18 09:05:22;;;;;;;1.70;1.30;;;25.00;90.20;;;;;;6156637;23;20427;-88
2023/09/18 09:07:49;;;;;;;3.17;1.87;;;25.00;90.10;;;;;;6156309;23;20407;-88
2023/09/18 09:10:18;;;;;;;1.83;1.50;;;25.00;90.10;;;;;;6156581;23;20438;-88
2023/09/18 09:12:53;;;;;;;1.53;1.43;;;25.00;90.10;;;;;;6156248;23;20488;-88
2023/09/18 09:15:21;;;;;;;1.43;1.20;;;25.00;90.10;;;;;;6156846;23;20419;-88
2023/09/18 09:17:48;;;;;;;2.13;1.77;;;25.00;90.10;;;;;;6156762;23;20403;-88
2023/09/18 09:20:18;;;;;;;1.43;1.33;;;25.00;90.10;;;;;;6156207;23;20530;-89
2023/09/18 09:22:45;;;;;;;1.60;1.50;;;25.00;90.10;;;;;;6156259;23;20384;-88
2023/09/18 09:25:31;;;;;;;1.57;1.47;;;25.00;90.50;;;;;;6156623;23;20400;-88
2023/09/18 09:27:59;;;;;;;1.60;1.10;;;25.00;90.10;;;;;;6156283;23;20436;-89
2023/09/18 09:30:27;;;;;;;1.70;1.57;;;25.00;90.10;;;;;;6156454;23;20435;-89
2023/09/18 09:32:56;;;;;;;2.00;1.80;;;25.00;90.10;;;;;;6156463;23;20431;-89
2023/09/18 09:35:26;;;;;;;1.50;1.40;;;25.00;90.40;;;;;;6156044;23;20923;-88
2023/09/18 09:37:55;;;;;;;1.60;1.47;;;25.10;90.10;;;;;;6156093;23;20384;-88
2023/09/18 09:40:23;;;;;;;1.83;1.60;;;25.00;90.10;;;;;;6156305;23;20502;-88
2023/09/18 09:43:00;;;;;;;1.60;1.50;;;25.10;90.10;;;;;;6156405;23;20791;-88
2023/09/18 09:45:28;;;;;;;2.47;1.60;;;25.10;90.10;;;;;;6156604;23;20388;-89
2023/09/18 09:47:56;;;;;;;1.97;1.40;;;25.10;90.50;;;;;;6156385;23;20400;-88
2023/09/18 09:50:25;;;;;;;1.60;1.40;;;25.00;90.10;;;;;;6156319;23;20431;-89
2023/09/18 09:52:54;;;;;;;1.47;1.37;;;25.10;90.10;;;;;;6156373;23;20404;-88
2023/09/18 09:55:24;;;;;;;1.60;1.50;;;25.10;90.10;;;;;;6156319;23;20399;-88
2023/09/18 09:57:57;;;;;;;2.90;1.40;;;25.10;90.10;;;;;;6156023;23;20390;-88
2023/09/18 10:00:33;;;;;;;1.47;1.37;;;25.10;90.10;;;;;;6155748;23;20486;-88
2023/09/18 10:03:04;;;;;;;1.47;1.37;;;25.10;90.10;;;;;;6155980;23;20883;-88
2023/09/18 10:05:34;;;;;;;1.50;1.40;;;25.10;90.10;;;;;;6156073;23;20423;-88
2023/09/18 10:08:05;;;;;;;2.07;1.60;;;25.10;90.10;;;;;;6156260;23;20400;-89
2023/09/18 10:10:35;;;;;;;1.60;1.40;;;25.10;90.10;;;;;;6156167;23;20395;-89
2023/09/18 10:13:13;;;;;;;1.47;1.37;;;25.10;90.10;;;;;;6155920;23;20411;-89
2023/09/18 10:15:43;;;;;;;1.37;1.27;;;25.10;90.10;;;;;;6156310;23;20458;-88
2023/09/18 10:18:19;;;;;;;1.40;1.20;;;25.10;90.10;;;;;;6156199;23;20407;-88
2023/09/18 10:20:49;;;;;;;2.13;1.30;;;25.10;90.10;;;;;;6156149;23;20485;-89
2023/09/18 10:23:26;;;;;;;1.60;1.50;;;25.10;90.10;;;;;;6156215;23;20388;-88
2023/09/18 10:25:59;;;;;;;1.70;1.40;;;25.10;90.10;;;;;;6156074;23;20392;-88
2023/09/18 10:28:30;;;;;;;1.53;1.43;;;25.10;90.00;;;;;;6155499;23;20438;-88
2023/09/18 10:30:59;;;;;;;1.70;1.23;;;25.10;90.10;;;;;;6155926;23;20396;-89
2023/09/18 10:33:26;;;;;;;1.30;1.20;;;25.10;90.00;;;;;;6155765;23;20407;-88
2023/09/18 10:35:54;;;;;;;1.37;1.27;;;25.10;90.00;;;;;;6155967;23;20416;-88
2023/09/18 10:38:22;;;;;;;2.10;1.40;;;25.10;90.00;;;;;;6156116;23;20428;-88
2023/09/18 10:40:49;;;;;;;1.30;1.20;;;25.10;90.00;;;;;;6155826;23;20454;-88
2023/09/18 10:43:18;;;;;;;1.30;1.20;;;25.10;90.00;;;;;;6156133;23;20486;-88
2023/09/18 10:45:48;;;;;;;1.40;1.10;;;25.20;90.40;;;;;;6155841;23;20408;-88
2023/09/18 10:48:16;;;;;;;1.50;1.40;;;25.20;90.00;;;;;;6156422;23;20495;-89
2023/09/18 10:50:45;;;;;;;1.37;1.27;;;25.20;90.00;;;;;;6157583;23;20900;-88
2023/09/18 10:53:12;;;;;;;1.33;1.23;;;25.20;90.00;;;;;;6157893;23;20719;-89
2023/09/18 10:55:39;;;;;;;1.90;1.30;;;25.20;90.00;;;;;;6157984;23;20458;-88
2023/09/18 10:58:06;;;;;;;2.20;1.33;;;25.20;90.00;;;;;;6157547;23;20400;-88
2023/09/18 11:00:36;;;;;;;2.40;1.23;;;25.20;90.00;;;;;;6157432;23;20527;-88
2023/09/18 11:03:17;;;;;;;1.13;1.03;;;25.20;90.00;;;;;;6157917;23;20408;-88
2023/09/18 11:05:45;;;;;;;1.40;1.20;;;25.30;90.10;;;;;;6157791;23;20422;-88
2023/09/18 11:08:33;;;;;;;1.40;1.30;;;25.20;90.00;;;;;;6157867;23;20404;-88
2023/09/18 11:11:04;;;;;;;1.67;1.57;;;25.30;90.10;;;;;;6157911;23;20404;-88
2023/09/18 11:13:32;;;;;;;1.20;1.10;;;25.20;90.00;;;;;;6157469;23;20416;-88
2023/09/18 11:16:17;;;;;;;1.37;1.27;;;25.30;90.10;;;;;;6157859;23;20435;-88
2023/09/18 11:18:48;;;;;;;1.30;1.20;;;25.30;90.10;;;;;;6157193;23;20490;-88
2023/09/18 11:21:17;;;;;;;1.23;1.10;;;25.30;90.50;;;;;;6157817;23;20423;-88
2023/09/18 11:23:44;;;;;;;1.30;1.20;;;25.30;90.10;;;;;;6157852;23;20418;-88
2023/09/18 11:26:12;;;;;;;2.03;1.20;;;25.30;90.10;;;;;;6157615;23;20831;-88
2023/09/18 11:28:39;;;;;;;1.23;1.13;;;25.30;90.10;;;;;;6157128;23;20514;-88
2023/09/18 11:31:07;;;;;;;1.40;1.13;;;25.30;90.10;;;;;;6157698;23;20470;-89
2023/09/18 11:33:36;;;;;;;1.57;1.30;;;25.30;90.10;;;;;;6157334;23;20442;-89
2023/09/18 11:36:11;;;;;;;1.30;1.20;;;25.30;90.10;;;;;;6157202;23;20484;-88
2023/09/18 11:38:55;;;;;;;1.33;1.23;;;25.40;90.20;;;;;;6157556;23;20700;-88
2023/09/18 11:41:26;;;;;;;1.60;1.10;;;25.40;90.10;;;;;;6157689;23;20431;-88
2023/09/18 11:43:53;;;;;;;1.20;1.00;;;25.40;90.20;;;;;;6157131;23;20407;-88
2023/09/18 11:46:21;;;;;;;1.50;1.20;;;25.40;90.20;;;;;;6156887;23;20487;-88
2023/09/18 11:48:51;;;;;;;1.77;1.23;;;25.40;90.10;;;;;;6157444;23;20404;-88
2023/09/18 11:51:24;;;;;;;1.60;1.50;;;25.40;90.10;;;;;;6157145;23;20887;-88
2023/09/18 11:53:56;;;;;;;1.30;1.20;;;25.40;90.10;;;;;;6157212;23;20384;-89
2023/09/18 11:56:23;;;;;;;1.43;1.33;;;25.40;90.20;;;;;;6157445;23;20399;-88
2023/09/18 11:58:51;;;;;;;1.30;1.20;;;25.40;90.10;;;;;;6156878;23;20404;-88
2023/09/18 12:01:19;;;;;;;3.20;1.20;;;25.40;90.10;;;;;;6156447;23;20448;-88
2023/09/18 12:03:48;;;;;;;1.50;1.30;;;25.40;90.10;;;;;;6157084;23;20435;-88
2023/09/18 12:06:15;;;;;;;1.30;1.20;;;25.40;90.10;;;;;;6156638;23;20507;-88
2023/09/18 12:08:44;;;;;;;1.40;1.30;;;25.40;90.10;;;;;;6157276;23;20443;-89
2023/09/18 12:11:16;;;;;;;1.30;1.20;;;25.40;90.10;;;;;;6157224;23;20495;-88
2023/09/18 12:13:43;;;;;;;1.27;1.17;;;25.40;90.10;;;;;;6156886;23;20396;-89
2023/09/18 12:16:10;;;;;;;1.10;1.00;;;25.40;90.10;;;;;;6157295;23;20408;-88
2023/09/18 12:18:38;;;;;;;1.40;1.10;;;25.40;90.20;;;;;;6157292;23;20418;-89
2023/09/18 12:21:07;;;;;;;1.47;1.30;;;25.40;90.10;;;;;;6157186;23;20502;-88
2023/09/18 12:23:39;;;;;;;1.47;1.37;;;25.40;90.20;;;;;;6157187;23;20444;-89
2023/09/18 12:26:08;;;;;;;1.40;1.20;;;25.40;90.20;;;;;;6157064;23;20411;-88
2023/09/18 12:28:36;;;;;;;1.30;1.03;;;25.40;90.20;;;;;;6156588;23;20478;-88
2023/09/18 12:31:06;;;;;;;1.20;1.10;;;25.40;90.20;;;;;;6157096;23;20487;-88
2023/09/18 12:33:36;;;;;;;1.10;0.90;;;25.30;90.20;;;;;;6157084;23;20404;-88
2023/09/18 12:36:04;;;;;;;1.63;1.20;;;25.40;90.20;;;;;;6157084;23;20412;-88
2023/09/18 12:38:32;;;;;;;1.50;1.17;;;25.40;90.20;;;;;;6156999;23;20404;-88
2023/09/18 12:41:05;;;;;;;2.47;1.20;;;25.40;90.20;;;;;;6156853;23;20506;-89
2023/09/18 12:43:36;;;;;;;1.50;1.20;;;25.40;90.20;;;;;;6156674;23;20930;-89
2023/09/18 12:46:05;;;;;;;1.70;1.20;;;25.40;90.20;;;;;;6156601;23;20880;-89
2023/09/18 12:48:32;;;;;;;1.40;1.30;;;25.40;90.20;;;;;;6156638;23;20438;-88
2023/09/18 12:51:09;;;;;;;1.23;1.13;;;25.40;90.20;;;;;;6156817;23;20438;-89
2023/09/18 12:53:35;;;;;;;1.30;1.20;;;25.40;90.20;;;;;;6156980;23;20467;-88